Time;durP1;ratioP1;P1;durP2;ratioP2;P2;SDS_P1;SDS_P2;PMS_P1;PMS_P2;Temp;Humidity;BMP_temperature;BMP_pressure;BME280_temperature;BME280_humidity;BME280_pressure;Samples;Min_cycle;Max_cycle;Signal;HPM_P1;HPM_P2
2022/01/30 00:01:42;;;;;;;19.38;3.67;;;6.80;99.90;;;;;;5063259;28;20044;-72
2022/01/30 00:04:08;;;;;;;23.13;4.35;;;6.80;99.90;;;;;;5063269;28;20049;-70
2022/01/30 00:06:33;;;;;;;22.25;3.33;;;6.80;99.90;;;;;;5068810;28;20048;-71
2022/01/30 00:08:59;;;;;;;27.88;3.58;;;6.80;99.90;;;;;;5051463;28;20075;-71
2022/01/30 00:11:30;;;;;;;27.25;3.30;;;6.80;99.90;;;;;;5050779;28;20041;-71
2022/01/30 00:13:56;;;;;;;26.58;3.63;;;6.90;99.90;;;;;;5034766;28;20503;-71
2022/01/30 00:16:24;;;;;;;23.25;3.28;;;6.90;99.90;;;;;;5058038;28;20114;-72
2022/01/30 00:24:05;;;;;;;24.42;4.32;;;6.80;99.90;;;;;;5070833;28;20620;-70
2022/01/30 00:26:34;;;;;;;25.92;3.65;;;6.80;99.90;;;;;;5071590;28;20135;-70
2022/01/30 00:28:59;;;;;;;23.23;3.85;;;6.80;99.90;;;;;;5056590;28;20043;-70
2022/01/30 00:31:26;;;;;;;26.05;3.83;;;6.80;99.90;;;;;;5051841;28;20123;-70
2022/01/30 00:33:53;;;;;;;20.65;3.97;;;6.90;99.90;;;;;;5056266;28;20037;-70
2022/01/30 00:36:18;;;;;;;27.88;3.90;;;6.80;99.90;;;;;;5054531;28;20029;-70
2022/01/30 00:38:44;;;;;;;21.58;3.00;;;6.80;99.90;;;;;;5071369;28;20040;-70
2022/01/30 00:41:10;;;;;;;17.75;3.80;;;6.80;99.90;;;;;;5068176;28;20394;-70
2022/01/30 00:43:36;;;;;;;21.83;3.13;;;6.80;99.90;;;;;;5071257;28;20082;-70
2022/01/30 00:46:02;;;;;;;21.58;3.85;;;6.80;99.90;;;;;;5071110;28;20498;-70
2022/01/30 00:48:27;;;;;;;20.27;3.28;;;6.70;99.90;;;;;;5060631;28;20471;-70
2022/01/30 00:50:53;;;;;;;19.02;3.53;;;6.70;99.90;;;;;;5051345;28;20056;-71
2022/01/30 00:53:19;;;;;;;40.60;11.00;;;6.70;99.90;;;;;;5051447;28;20044;-69
2022/01/30 00:55:45;;;;;;;41.13;14.18;;;6.70;99.90;;;;;;5051009;28;20384;-72
2022/01/30 00:58:11;;;;;;;26.75;6.18;;;6.60;99.90;;;;;;5051873;28;20041;-70
2022/01/30 01:00:38;;;;;;;28.17;5.80;;;6.60;99.90;;;;;;5034342;28;20403;-71
2022/01/30 01:03:04;;;;;;;29.15;8.30;;;6.60;99.90;;;;;;5051416;28;20048;-70
2022/01/30 01:05:33;;;;;;;27.25;5.47;;;6.60;99.90;;;;;;5069157;28;20539;-70
2022/01/30 01:08:07;;;;;;;22.60;3.70;;;6.60;99.90;;;;;;5053686;28;20047;-70
2022/01/30 01:10:38;;;;;;;25.35;5.85;;;6.60;99.90;;;;;;5067825;28;20470;-70
2022/01/30 01:25:58;;;;;;;14.00;3.25;;;6.40;99.90;;;;;;5050818;28;20094;-71
2022/01/30 01:28:25;;;;;;;26.92;3.75;;;6.30;99.90;;;;;;5067208;28;20428;-72
2022/01/30 01:30:50;;;;;;;21.30;4.53;;;6.20;99.90;;;;;;5069241;28;20040;-71
2022/01/30 01:33:17;;;;;;;30.45;4.40;;;6.10;99.90;;;;;;5070629;28;20037;-70
2022/01/30 01:35:43;;;;;;;27.02;4.40;;;6.10;99.90;;;;;;5056184;28;20475;-71
2022/01/30 01:38:12;;;;;;;28.92;8.07;;;6.10;99.90;;;;;;5073832;28;20047;-73
2022/01/30 01:40:39;;;;;;;31.60;9.80;;;6.10;99.90;;;;;;5056335;28;20170;-72
2022/01/30 01:43:04;;;;;;;23.30;6.50;;;6.10;99.90;;;;;;5057686;28;20036;-71
2022/01/30 01:45:35;;;;;;;43.20;12.40;;;6.10;99.90;;;;;;5057539;28;20055;-71
2022/01/30 01:48:08;;;;;;;40.38;8.60;;;6.10;99.90;;;;;;5055466;28;20514;-70
2022/01/30 01:50:40;;;;;;;34.70;8.43;;;6.10;99.90;;;;;;5073869;28;20043;-73
2022/01/30 01:53:13;;;;;;;46.50;14.95;;;6.00;99.90;;;;;;5056418;28;20048;-70
2022/01/30 01:55:41;;;;;;;49.28;15.38;;;6.00;99.90;;;;;;5073858;28;20040;-72
2022/01/30 01:58:06;;;;;;;26.33;5.10;;;6.00;99.90;;;;;;5073972;28;20044;-72
2022/01/30 02:00:33;;;;;;;25.77;5.85;;;6.00;99.90;;;;;;5056562;28;20052;-70
2022/01/30 02:02:59;;;;;;;21.15;4.00;;;6.00;99.90;;;;;;5073306;28;20110;-70
2022/01/30 02:05:30;;;;;;;21.95;5.97;;;6.00;99.90;;;;;;5056787;28;20139;-70
2022/01/30 02:10:39;;;;;;;26.00;4.90;;;6.00;99.90;;;;;;5053783;28;20503;-70
2022/01/30 02:13:32;;;;;;;31.85;5.35;;;6.00;99.90;;;;;;5054899;28;20180;-72
2022/01/30 02:24:28;;;;;;;29.58;4.63;;;6.00;99.90;;;;;;5054916;28;20103;-69
2022/01/30 02:26:54;;;;;;;21.23;5.78;;;6.00;99.90;;;;;;5054099;28;20460;-70
2022/01/30 02:29:20;;;;;;;24.63;3.88;;;6.00;99.90;;;;;;5069640;28;20127;-69
2022/01/30 02:31:46;;;;;;;24.98;4.35;;;6.00;99.90;;;;;;5071152;28;20049;-71
2022/01/30 02:34:12;;;;;;;22.30;4.10;;;6.00;99.90;;;;;;5065961;28;20120;-70
2022/01/30 02:36:49;;;;;;;26.23;4.22;;;6.00;99.90;;;;;;5053113;28;20135;-71
2022/01/30 02:39:16;;;;;;;21.73;3.88;;;6.00;99.90;;;;;;5046607;28;20543;-71
2022/01/30 02:41:42;;;;;;;26.15;3.90;;;6.00;99.90;;;;;;5072362;28;20037;-71
2022/01/30 02:44:20;;;;;;;24.67;4.10;;;6.00;99.90;;;;;;5072196;28;20044;-70
2022/01/30 02:46:49;;;;;;;22.58;4.10;;;6.00;99.90;;;;;;5072333;28;20068;-70
2022/01/30 02:51:54;;;;;;;27.98;4.35;;;6.00;99.90;;;;;;5072922;28;20447;-71
2022/01/30 02:54:21;;;;;;;29.20;3.90;;;6.10;99.90;;;;;;5056147;28;20044;-70
2022/01/30 02:56:47;;;;;;;24.55;3.67;;;6.10;99.90;;;;;;5072739;28;20043;-72
2022/01/30 02:59:14;;;;;;;26.83;4.97;;;6.20;99.90;;;;;;5072857;28;20036;-70
2022/01/30 03:01:40;;;;;;;29.10;4.72;;;6.20;99.90;;;;;;5072629;28;20043;-70
2022/01/30 03:04:09;;;;;;;25.85;3.83;;;6.20;99.90;;;;;;5071840;28;20053;-69
2022/01/30 03:06:36;;;;;;;38.27;4.80;;;6.20;99.90;;;;;;5072847;28;20048;-70
2022/01/30 03:09:05;;;;;;;30.02;3.95;;;6.20;99.90;;;;;;5070917;28;20040;-71
2022/01/30 03:11:31;;;;;;;26.10;4.83;;;6.30;99.90;;;;;;5071564;28;20041;-71
2022/01/30 03:13:57;;;;;;;22.40;3.95;;;6.20;99.90;;;;;;5072480;28;20047;-72
2022/01/30 03:16:22;;;;;;;29.80;4.63;;;6.20;99.90;;;;;;5072718;28;20501;-70
2022/01/30 03:18:49;;;;;;;29.80;4.40;;;6.20;99.90;;;;;;5071871;28;20044;-70
2022/01/30 03:21:15;;;;;;;29.83;3.92;;;6.20;99.90;;;;;;5053158;28;20048;-71
2022/01/30 03:23:40;;;;;;;38.40;4.18;;;6.20;99.90;;;;;;5052156;28;20375;-70
2022/01/30 03:26:07;;;;;;;19.02;3.58;;;6.20;99.90;;;;;;5040690;28;20121;-69
2022/01/30 03:28:33;;;;;;;23.20;4.18;;;6.20;99.90;;;;;;5071745;28;20434;-70
2022/01/30 03:31:03;;;;;;;25.65;4.15;;;6.20;99.90;;;;;;5070355;28;20032;-70
2022/01/30 03:33:29;;;;;;;28.67;3.90;;;6.20;99.90;;;;;;5071570;28;20097;-71
2022/01/30 03:35:55;;;;;;;26.30;3.45;;;6.20;99.90;;;;;;5039422;28;20040;-71
2022/01/30 03:38:22;;;;;;;27.35;4.32;;;6.20;99.90;;;;;;5070296;28;20056;-74
2022/01/30 03:40:48;;;;;;;25.08;4.22;;;6.20;99.90;;;;;;5070486;28;20045;-70
2022/01/30 03:43:15;;;;;;;24.30;4.63;;;6.20;99.90;;;;;;5072192;28;20040;-74
2022/01/30 03:45:41;;;;;;;21.05;3.22;;;6.20;99.90;;;;;;5064500;28;20430;-70
2022/01/30 03:48:06;;;;;;;23.98;4.53;;;6.10;99.90;;;;;;5052019;28;20395;-73
2022/01/30 03:50:33;;;;;;;27.70;4.70;;;6.10;99.90;;;;;;5051797;28;20498;-71
2022/01/30 03:52:59;;;;;;;27.55;3.88;;;6.00;99.90;;;;;;5051664;28;20055;-71
2022/01/30 03:55:25;;;;;;;25.40;4.15;;;6.00;99.90;;;;;;5035250;28;20051;-71
2022/01/30 03:57:51;;;;;;;30.35;4.68;;;6.00;99.90;;;;;;5058779;28;20028;-72
2022/01/30 04:00:17;;;;;;;26.17;4.80;;;5.90;99.90;;;;;;5072165;28;20047;-71
2022/01/30 04:02:43;;;;;;;31.08;5.35;;;5.90;99.90;;;;;;5054585;28;20045;-72
2022/01/30 04:05:09;;;;;;;36.63;5.22;;;5.90;99.90;;;;;;5057730;28;20041;-71
2022/01/30 04:07:35;;;;;;;34.40;4.93;;;5.80;99.90;;;;;;5051719;28;20384;-71
2022/01/30 04:10:03;;;;;;;35.00;5.63;;;5.80;99.90;;;;;;5051190;28;20031;-71
2022/01/30 04:12:29;;;;;;;35.20;4.75;;;5.90;99.90;;;;;;5035544;28;20048;-72
2022/01/30 04:14:54;;;;;;;32.30;4.65;;;5.90;99.90;;;;;;5052177;28;20364;-71
2022/01/30 04:17:21;;;;;;;31.10;5.40;;;5.90;99.90;;;;;;5055555;28;20044;-71
2022/01/30 04:19:47;;;;;;;38.35;4.32;;;5.90;99.90;;;;;;5072002;28;20127;-72
2022/01/30 04:22:13;;;;;;;34.30;5.93;;;5.90;99.90;;;;;;5070829;28;20386;-70
2022/01/30 04:24:39;;;;;;;34.53;5.10;;;5.90;99.90;;;;;;5070358;28;20474;-73
2022/01/30 04:27:05;;;;;;;35.80;5.88;;;6.00;99.90;;;;;;5070767;28;20127;-70
2022/01/30 04:29:31;;;;;;;38.55;5.40;;;5.90;99.90;;;;;;5054867;28;20041;-71
2022/01/30 04:31:57;;;;;;;31.98;5.60;;;6.00;99.90;;;;;;5065835;28;20471;-71
2022/01/30 04:34:24;;;;;;;37.83;6.22;;;6.00;99.90;;;;;;5063409;28;20391;-70
2022/01/30 04:37:01;;;;;;;33.30;5.68;;;6.00;99.90;;;;;;5034309;28;20040;-74
2022/01/30 04:51:59;;;;;;;35.80;5.68;;;6.10;99.90;;;;;;5051170;28;20051;-71
2022/01/30 04:58:50;;;;;;;40.80;6.13;;;6.00;99.90;;;;;;5063028;28;20048;-71
2022/01/30 05:01:35;;;;;;;33.80;5.43;;;6.00;99.90;;;;;;5070915;28;20040;-70
2022/01/30 05:04:19;;;;;;;40.70;5.70;;;5.80;99.90;;;;;;5048736;28;20094;-72
2022/01/30 05:09:23;;;;;;;29.73;5.50;;;5.50;99.90;;;;;;5054079;28;20075;-72
2022/01/30 05:11:49;;;;;;;31.10;4.78;;;5.50;99.90;;;;;;5053403;28;20040;-70
2022/01/30 05:14:15;;;;;;;37.50;5.25;;;5.40;99.90;;;;;;5054618;28;20041;-71
2022/01/30 05:16:41;;;;;;;42.30;5.95;;;5.40;99.90;;;;;;5054244;28;20087;-70
2022/01/30 05:19:07;;;;;;;40.58;5.90;;;5.40;99.90;;;;;;5055062;28;20079;-71
2022/01/30 05:21:33;;;;;;;41.53;5.82;;;5.40;99.90;;;;;;5054323;28;20364;-70
2022/01/30 05:23:59;;;;;;;31.60;6.07;;;5.40;99.90;;;;;;5054466;28;20044;-70
2022/01/30 05:26:26;;;;;;;38.78;5.72;;;5.40;99.90;;;;;;5054071;28;20048;-71
2022/01/30 05:28:52;;;;;;;39.90;7.03;;;5.40;99.90;;;;;;5064405;28;20082;-71
2022/01/30 05:31:18;;;;;;;51.40;6.07;;;5.40;99.90;;;;;;5071913;28;20053;-70
2022/01/30 05:33:44;;;;;;;45.28;6.18;;;5.40;99.90;;;;;;5072103;28;20395;-71
2022/01/30 05:36:10;;;;;;;46.33;7.25;;;5.40;99.90;;;;;;5043189;28;20083;-73
2022/01/30 05:38:36;;;;;;;54.72;7.88;;;5.30;99.90;;;;;;5072661;28;20068;-72
2022/01/30 05:41:02;;;;;;;46.42;6.95;;;5.30;99.90;;;;;;5054544;28;20463;-71
2022/01/30 05:43:31;;;;;;;51.40;7.40;;;5.30;99.90;;;;;;5054542;28;20120;-73
2022/01/30 05:46:10;;;;;;;39.05;6.10;;;5.30;99.90;;;;;;5054072;28;20755;-70
2022/01/30 05:48:36;;;;;;;46.15;7.53;;;5.30;99.90;;;;;;5054321;28;20045;-71
2022/01/30 05:51:02;;;;;;;45.65;6.40;;;5.30;99.90;;;;;;5054389;28;20037;-71
2022/01/30 05:53:28;;;;;;;44.45;6.47;;;5.40;99.90;;;;;;5054100;28;20036;-72
2022/01/30 05:55:53;;;;;;;47.97;7.30;;;5.40;99.90;;;;;;5037535;28;20044;-72
2022/01/30 05:58:19;;;;;;;43.90;6.65;;;5.30;99.90;;;;;;5049836;28;20115;-71
2022/01/30 06:00:45;;;;;;;47.60;6.88;;;5.40;99.90;;;;;;5074514;28;20070;-72
2022/01/30 06:03:10;;;;;;;37.17;7.00;;;5.30;99.90;;;;;;5074010;28;20048;-71
2022/01/30 06:05:36;;;;;;;40.33;6.78;;;5.40;99.90;;;;;;5056976;28;20391;-71
2022/01/30 06:08:11;;;;;;;43.60;6.78;;;5.30;99.90;;;;;;5054128;28;20479;-71
2022/01/30 06:10:37;;;;;;;38.47;6.25;;;5.30;99.90;;;;;;5052432;28;20041;-70
2022/01/30 06:13:03;;;;;;;53.33;7.22;;;5.20;99.90;;;;;;5054250;28;20044;-71
2022/01/30 06:15:28;;;;;;;36.53;6.63;;;5.20;99.90;;;;;;5055385;28;20045;-71
2022/01/30 06:17:54;;;;;;;48.40;7.53;;;5.20;99.90;;;;;;5053755;28;20044;-70
2022/01/30 06:20:20;;;;;;;46.22;6.97;;;5.30;99.90;;;;;;5037183;28;20079;-70
2022/01/30 06:22:45;;;;;;;42.03;6.85;;;5.30;99.90;;;;;;5053597;28;20045;-70
2022/01/30 06:25:11;;;;;;;39.00;6.65;;;5.30;99.90;;;;;;5053798;28;20045;-70
2022/01/30 06:27:37;;;;;;;42.05;6.57;;;5.30;99.90;;;;;;5055345;28;20407;-71
2022/01/30 06:30:05;;;;;;;53.00;6.60;;;5.30;99.90;;;;;;5073367;28;20036;-69
2022/01/30 06:32:31;;;;;;;36.33;6.07;;;5.30;99.90;;;;;;5068305;28;20091;-72
2022/01/30 06:34:56;;;;;;;46.33;7.53;;;5.20;99.90;;;;;;5064839;28;20492;-70
2022/01/30 06:37:22;;;;;;;49.83;8.02;;;5.30;99.90;;;;;;5073192;28;20055;-69
2022/01/30 06:39:48;;;;;;;53.65;7.60;;;5.20;99.90;;;;;;5072013;28;20083;-71
2022/01/30 06:42:14;;;;;;;44.28;7.03;;;5.20;99.90;;;;;;5073397;28;20043;-71
2022/01/30 06:44:40;;;;;;;53.47;7.50;;;5.20;99.90;;;;;;5073156;28;20037;-72
2022/01/30 06:47:06;;;;;;;39.13;7.15;;;5.30;99.90;;;;;;5064366;28;20071;-71
2022/01/30 06:49:32;;;;;;;41.67;6.85;;;5.30;99.90;;;;;;5068188;28;20029;-73
2022/01/30 06:51:57;;;;;;;39.55;6.30;;;5.30;99.90;;;;;;5064153;28;20045;-70
2022/01/30 06:54:23;;;;;;;44.45;6.38;;;5.30;99.90;;;;;;5073326;28;20452;-74
2022/01/30 06:56:49;;;;;;;46.90;6.60;;;5.40;99.90;;;;;;5056254;28;20110;-72
2022/01/30 06:59:14;;;;;;;36.13;6.38;;;5.40;99.90;;;;;;5073513;28;20036;-72
2022/01/30 07:01:40;;;;;;;45.97;7.07;;;5.50;99.90;;;;;;5073197;28;20094;-71
2022/01/30 07:04:06;;;;;;;43.10;7.65;;;5.50;99.90;;;;;;5068434;28;20049;-71
2022/01/30 07:06:32;;;;;;;46.42;6.88;;;5.40;99.90;;;;;;5053115;28;20060;-72
2022/01/30 07:08:57;;;;;;;51.58;8.30;;;5.40;99.90;;;;;;5036179;28;20430;-72
2022/01/30 07:11:23;;;;;;;48.70;7.20;;;5.40;99.90;;;;;;5051325;28;20037;-71
2022/01/30 07:13:48;;;;;;;46.72;7.15;;;5.50;99.90;;;;;;5053629;28;20044;-72
2022/01/30 07:16:15;;;;;;;49.35;6.70;;;5.50;99.90;;;;;;5053353;28;20033;-72
2022/01/30 07:18:42;;;;;;;57.00;7.35;;;5.50;99.90;;;;;;5052832;28;20072;-73
2022/01/30 07:21:09;;;;;;;44.60;6.85;;;5.60;99.90;;;;;;5053015;28;20037;-74
2022/01/30 07:23:36;;;;;;;40.92;6.70;;;5.60;99.90;;;;;;5036303;28;20361;-74
2022/01/30 07:26:02;;;;;;;50.38;6.75;;;5.60;99.90;;;;;;5036029;28;20080;-71
2022/01/30 07:28:28;;;;;;;46.40;6.93;;;5.60;99.90;;;;;;5036334;28;20036;-73
2022/01/30 07:30:54;;;;;;;43.95;7.28;;;5.60;99.90;;;;;;5052520;28;20041;-71
2022/01/30 07:33:19;;;;;;;53.40;7.10;;;5.60;99.90;;;;;;5052072;28;20459;-73
2022/01/30 07:35:45;;;;;;;37.30;6.53;;;5.60;99.90;;;;;;5069465;28;20040;-72
2022/01/30 07:38:12;;;;;;;34.90;6.63;;;5.60;99.90;;;;;;5072441;28;20071;-73
2022/01/30 07:40:38;;;;;;;37.83;5.70;;;5.70;99.90;;;;;;5054405;28;20051;-72
2022/01/30 07:43:04;;;;;;;42.97;6.95;;;5.70;99.90;;;;;;5072467;28;20048;-75
2022/01/30 07:45:30;;;;;;;39.72;6.30;;;5.70;99.90;;;;;;5056457;28;20391;-71
2022/01/30 07:47:55;;;;;;;39.30;6.60;;;5.70;99.90;;;;;;5072271;28;20037;-73
2022/01/30 07:50:21;;;;;;;42.15;5.97;;;5.70;99.90;;;;;;5072012;28;20090;-74
2022/01/30 07:52:47;;;;;;;46.92;7.00;;;5.70;99.90;;;;;;5049116;28;20170;-71
2022/01/30 07:55:13;;;;;;;41.30;6.50;;;5.80;99.90;;;;;;5058371;28;20115;-72
2022/01/30 07:57:39;;;;;;;49.28;7.53;;;5.80;99.90;;;;;;5062248;28;20140;-72
2022/01/30 08:00:06;;;;;;;48.28;7.20;;;5.80;99.90;;;;;;5061918;28;20045;-74
2022/01/30 08:02:32;;;;;;;43.60;7.30;;;5.80;99.90;;;;;;5064539;28;20040;-72
2022/01/30 08:04:57;;;;;;;45.95;8.25;;;5.80;99.90;;;;;;5071526;28;20065;-72
2022/01/30 08:07:23;;;;;;;45.92;7.07;;;5.90;99.90;;;;;;5071463;28;20040;-72
2022/01/30 08:09:49;;;;;;;42.47;7.63;;;5.90;99.90;;;;;;5070467;28;20040;-72
2022/01/30 08:12:15;;;;;;;42.95;6.75;;;5.90;99.90;;;;;;5072364;28;20036;-74
2022/01/30 08:14:40;;;;;;;51.72;7.80;;;5.90;99.90;;;;;;5071632;28;20158;-71
2022/01/30 08:17:06;;;;;;;47.47;6.75;;;5.90;99.90;;;;;;5072294;28;20499;-72
2022/01/30 08:19:32;;;;;;;47.65;7.20;;;5.90;99.90;;;;;;5072182;28;20043;-73
2022/01/30 08:22:00;;;;;;;54.20;7.97;;;5.90;99.90;;;;;;5055083;28;20430;-72
2022/01/30 08:24:26;;;;;;;51.33;8.23;;;5.90;99.90;;;;;;5071724;28;20097;-72
2022/01/30 08:26:52;;;;;;;57.13;8.55;;;5.90;99.90;;;;;;5071871;28;20127;-72
2022/01/30 08:29:17;;;;;;;52.08;8.68;;;5.90;99.90;;;;;;5072059;28;20175;-72
2022/01/30 08:31:43;;;;;;;60.67;8.10;;;6.00;99.90;;;;;;5071915;28;20378;-72
2022/01/30 08:34:09;;;;;;;47.63;6.13;;;6.00;99.90;;;;;;5052530;28;20526;-72
2022/01/30 08:36:35;;;;;;;46.67;7.45;;;5.90;99.90;;;;;;5051994;28;20048;-72
2022/01/30 08:39:00;;;;;;;46.55;7.85;;;5.90;99.90;;;;;;5051377;28;20041;-75
2022/01/30 08:41:26;;;;;;;45.90;6.80;;;5.90;99.90;;;;;;5034093;28;20040;-72
2022/01/30 08:43:52;;;;;;;46.58;7.22;;;5.90;99.90;;;;;;5053580;28;20130;-72
2022/01/30 08:46:17;;;;;;;42.95;7.20;;;5.90;99.90;;;;;;5040251;28;20037;-75
2022/01/30 08:48:43;;;;;;;43.33;6.97;;;6.00;99.90;;;;;;5055467;28;20045;-74
2022/01/30 08:51:09;;;;;;;42.42;6.35;;;6.00;99.90;;;;;;5039043;28;20256;-73
2022/01/30 08:53:35;;;;;;;42.78;7.07;;;6.00;99.90;;;;;;5055239;28;20044;-72
2022/01/30 08:56:00;;;;;;;46.03;6.78;;;6.10;99.90;;;;;;5038942;28;20060;-74
2022/01/30 08:58:26;;;;;;;45.47;7.13;;;6.20;99.90;;;;;;5055472;28;20045;-72
2022/01/30 09:00:52;;;;;;;46.40;7.85;;;6.20;99.90;;;;;;5039069;28;20045;-71
2022/01/30 09:03:18;;;;;;;46.70;6.07;;;6.20;99.90;;;;;;5038711;28;20152;-72
2022/01/30 09:05:44;;;;;;;33.28;5.65;;;6.20;99.90;;;;;;5055376;28;20045;-77
2022/01/30 09:08:09;;;;;;;34.85;6.45;;;6.20;99.90;;;;;;5055112;28;20479;-74
2022/01/30 09:10:37;;;;;;;39.20;5.97;;;6.20;99.90;;;;;;5037303;28;20041;-72
2022/01/30 09:13:04;;;;;;;40.35;5.95;;;6.20;99.90;;;;;;5055607;28;20037;-72
2022/01/30 09:15:30;;;;;;;43.15;6.63;;;6.20;99.90;;;;;;5055693;28;20106;-73
2022/01/30 09:17:58;;;;;;;42.28;6.47;;;6.30;99.90;;;;;;5054933;28;20041;-74
2022/01/30 09:20:24;;;;;;;38.08;6.65;;;6.20;99.90;;;;;;5055256;28;20391;-71
2022/01/30 09:22:51;;;;;;;36.75;6.57;;;6.20;99.90;;;;;;5054612;28;20051;-72
2022/01/30 09:25:17;;;;;;;42.17;7.22;;;6.20;99.90;;;;;;5055804;28;20099;-73
2022/01/30 09:27:43;;;;;;;39.53;6.07;;;6.30;99.90;;;;;;5055140;28;20047;-71
2022/01/30 09:30:10;;;;;;;40.28;8.05;;;6.40;99.90;;;;;;5054834;28;20040;-73
2022/01/30 09:32:36;;;;;;;39.15;6.47;;;6.60;99.90;;;;;;5067164;28;20037;-73
2022/01/30 09:35:03;;;;;;;33.08;5.38;;;6.60;99.90;;;;;;5058145;28;20131;-75
2022/01/30 09:37:28;;;;;;;42.42;7.25;;;6.60;99.90;;;;;;5074638;28;20135;-74
2022/01/30 09:39:54;;;;;;;47.30;6.97;;;6.60;99.90;;;;;;5073358;28;20127;-75
2022/01/30 09:42:23;;;;;;;42.88;6.95;;;6.60;99.90;;;;;;5074782;28;20051;-75
2022/01/30 09:44:49;;;;;;;49.57;6.67;;;6.60;99.90;;;;;;5057761;28;20127;-72
2022/01/30 09:47:17;;;;;;;40.15;5.90;;;6.60;99.90;;;;;;5051677;28;20367;-73
2022/01/30 09:49:48;;;;;;;51.35;7.82;;;6.60;99.90;;;;;;5057785;28;20041;-73
2022/01/30 09:52:14;;;;;;;50.10;7.38;;;6.70;99.90;;;;;;5054797;28;20388;-74
2022/01/30 09:54:40;;;;;;;52.17;7.40;;;6.70;99.90;;;;;;5054924;28;20483;-72
2022/01/30 09:57:06;;;;;;;35.88;6.32;;;6.70;99.90;;;;;;5055824;28;20045;-75
2022/01/30 09:59:32;;;;;;;51.20;7.60;;;6.80;99.90;;;;;;5072675;28;20520;-73
2022/01/30 10:01:57;;;;;;;46.65;6.70;;;6.90;99.90;;;;;;5056337;28;20032;-73
2022/01/30 10:04:23;;;;;;;40.47;7.07;;;6.90;99.90;;;;;;5056048;28;20056;-73
2022/01/30 10:06:57;;;;;;;39.25;6.72;;;6.90;99.90;;;;;;5056761;28;20048;-73
2022/01/30 10:09:29;;;;;;;54.47;7.63;;;6.90;99.90;;;;;;5056577;28;20041;-75
2022/01/30 10:12:13;;;;;;;45.17;7.15;;;7.00;99.90;;;;;;5043708;28;20083;-72
2022/01/30 10:14:59;;;;;;;40.13;5.88;;;7.00;99.90;;;;;;5036308;28;20490;-74
2022/01/30 10:17:39;;;;;;;45.75;7.63;;;7.20;99.90;;;;;;5050368;28;20048;-73
2022/01/30 10:20:28;;;;;;;49.45;7.07;;;7.30;99.90;;;;;;5055472;28;20072;-73
2022/01/30 10:22:58;;;;;;;41.88;6.68;;;7.30;99.90;;;;;;5038383;28;20048;-74
2022/01/30 10:25:29;;;;;;;39.58;6.00;;;7.20;99.90;;;;;;5035566;28;20045;-73
2022/01/30 10:28:16;;;;;;;43.83;7.25;;;7.10;99.90;;;;;;5035591;28;20384;-74
2022/01/30 10:30:43;;;;;;;37.78;6.53;;;7.20;99.90;;;;;;5037211;28;20159;-75
2022/01/30 10:33:09;;;;;;;46.88;7.97;;;7.20;99.90;;;;;;5039744;28;20049;-73
2022/01/30 10:35:55;;;;;;;41.72;6.38;;;7.20;99.90;;;;;;5064774;28;20052;-72
2022/01/30 10:38:32;;;;;;;41.63;7.10;;;7.30;99.90;;;;;;5073783;28;20075;-72
2022/01/30 10:41:20;;;;;;;41.85;6.10;;;7.30;99.90;;;;;;5072405;28;20123;-74
2022/01/30 10:43:54;;;;;;;40.65;7.20;;;7.40;99.90;;;;;;5073454;28;20032;-73
2022/01/30 10:46:28;;;;;;;31.40;5.50;;;7.40;99.90;;;;;;5073220;28;20090;-73
2022/01/30 10:49:06;;;;;;;38.67;6.07;;;7.50;99.90;;;;;;5073285;28;20427;-74
2022/01/30 10:51:32;;;;;;;40.80;6.68;;;7.70;99.90;;;;;;5039072;28;20041;-73
2022/01/30 10:54:12;;;;;;;42.20;8.07;;;7.70;99.90;;;;;;5038350;28;20479;-71
2022/01/30 10:56:39;;;;;;;49.58;9.45;;;7.80;99.90;;;;;;5053586;28;20068;-72
2022/01/30 10:59:16;;;;;;;45.58;7.47;;;7.90;99.90;;;;;;5037195;28;20078;-72
2022/01/30 11:01:49;;;;;;;41.10;7.85;;;8.10;99.90;;;;;;5058996;28;20035;-75
2022/01/30 11:04:26;;;;;;;43.85;7.40;;;8.20;99.90;;;;;;5070865;28;20522;-74
2022/01/30 11:06:53;;;;;;;48.53;8.27;;;8.10;99.90;;;;;;5054243;28;20072;-73
2022/01/30 11:09:30;;;;;;;57.55;9.18;;;8.00;99.90;;;;;;5055539;28;20044;-74
2022/01/30 11:12:07;;;;;;;45.75;7.90;;;8.10;99.90;;;;;;5071099;28;20505;-73
2022/01/30 11:17:15;;;;;;;55.03;9.40;;;8.30;99.90;;;;;;5071839;28;20536;-74
2022/01/30 11:19:43;;;;;;;53.30;7.95;;;8.10;99.90;;;;;;5071709;28;20048;-72
2022/01/30 11:22:18;;;;;;;47.88;8.95;;;8.20;99.90;;;;;;5070431;28;20048;-73
2022/01/30 11:24:46;;;;;;;41.85;7.47;;;8.20;99.90;;;;;;5071929;28;20094;-73
2022/01/30 11:27:14;;;;;;;45.08;6.97;;;8.20;99.90;;;;;;5055135;28;20387;-71
2022/01/30 11:29:40;;;;;;;48.92;7.57;;;8.00;99.90;;;;;;5071522;28;20450;-74
2022/01/30 11:32:07;;;;;;;37.33;6.90;;;7.90;99.90;;;;;;5061687;28;20041;-72
2022/01/30 11:34:37;;;;;;;50.63;7.95;;;7.80;99.90;;;;;;5051734;28;20136;-73
2022/01/30 11:37:04;;;;;;;38.95;6.57;;;7.80;99.90;;;;;;5033896;28;20040;-74
2022/01/30 11:39:31;;;;;;;40.75;6.28;;;7.80;99.90;;;;;;5035385;28;20041;-75
2022/01/30 11:42:12;;;;;;;41.03;6.18;;;7.90;99.90;;;;;;5051916;28;20041;-73
2022/01/30 11:44:43;;;;;;;44.53;6.82;;;7.80;99.90;;;;;;5070838;28;20086;-73
2022/01/30 11:47:17;;;;;;;41.72;6.28;;;7.80;99.90;;;;;;5043077;28;20441;-76
2022/01/30 11:49:47;;;;;;;44.15;6.45;;;8.10;99.90;;;;;;5034844;28;20479;-72
2022/01/30 11:52:14;;;;;;;37.45;7.38;;;8.40;99.90;;;;;;5051233;28;20044;-74
2022/01/30 11:54:50;;;;;;;42.65;7.07;;;8.60;99.90;;;;;;5033788;28;20396;-74
2022/01/30 11:57:22;;;;;;;29.40;5.00;;;8.90;99.90;;;;;;5051591;28;20098;-73
2022/01/30 12:00:02;;;;;;;49.28;15.23;;;9.00;96.70;;;;;;5051039;28;20127;-73
2022/01/30 12:02:35;;;;;;;43.13;10.18;;;8.90;95.20;;;;;;5058217;28;20089;-72
2022/01/30 12:05:08;;;;;;;49.60;8.82;;;8.90;95.10;;;;;;5051354;28;20052;-73
2022/01/30 12:07:47;;;;;;;49.95;13.18;;;8.80;95.80;;;;;;5051221;28;20139;-72
2022/01/30 12:10:16;;;;;;;54.40;13.02;;;8.50;90.30;;;;;;5050216;28;20490;-73
2022/01/30 12:12:51;;;;;;;47.45;13.20;;;8.30;94.80;;;;;;5034688;28;20049;-73
2022/01/30 12:15:37;;;;;;;52.50;11.70;;;8.10;96.70;;;;;;5034810;28;20052;-73
2022/01/30 12:18:05;;;;;;;54.88;15.45;;;8.20;95.10;;;;;;5050447;28;20098;-72
2022/01/30 12:21:08;;;;;;;60.63;13.10;;;8.40;98.20;;;;;;5034559;28;20368;-73
2022/01/30 12:23:36;;;;;;;34.30;6.25;;;8.50;93.50;;;;;;5051106;28;20387;-73
2022/01/30 12:26:08;;;;;;;40.00;8.38;;;8.30;97.90;;;;;;5051079;28;20051;-72
2022/01/30 12:28:43;;;;;;;37.67;8.18;;;8.10;98.50;;;;;;5050611;28;20051;-74
2022/01/30 12:31:32;;;;;;;44.50;9.25;;;8.10;96.50;;;;;;5034598;28;20084;-72
2022/01/30 12:34:03;;;;;;;36.45;8.68;;;8.20;93.90;;;;;;5049592;28;20127;-72
2022/01/30 12:36:31;;;;;;;38.00;9.00;;;8.30;95.30;;;;;;5017597;28;20048;-73
2022/01/30 12:39:05;;;;;;;43.45;9.95;;;8.50;96.20;;;;;;5033786;28;20041;-73
2022/01/30 12:41:32;;;;;;;36.85;8.45;;;8.60;94.70;;;;;;5049652;28;20048;-73
2022/01/30 12:44:00;;;;;;;38.08;8.40;;;8.70;93.70;;;;;;5049769;28;20072;-74
2022/01/30 12:46:30;;;;;;;33.03;6.78;;;8.70;91.50;;;;;;5049943;28;20045;-72
2022/01/30 12:49:00;;;;;;;36.00;5.70;;;8.70;91.60;;;;;;5050082;28;20041;-73
2022/01/30 12:51:29;;;;;;;29.98;5.35;;;8.60;91.90;;;;;;5032801;28;20127;-73
2022/01/30 12:53:56;;;;;;;26.80;4.95;;;8.70;91.80;;;;;;5050279;28;20086;-72
2022/01/30 12:56:25;;;;;;;29.15;4.72;;;8.80;92.40;;;;;;5050496;28;20412;-73
2022/01/30 12:58:56;;;;;;;32.78;5.28;;;8.80;88.20;;;;;;5050549;28;20048;-73
2022/01/30 13:01:26;;;;;;;33.35;5.70;;;8.80;85.30;;;;;;5050720;28;20167;-73
2022/01/30 13:04:26;;;;;;;34.72;5.80;;;8.60;91.90;;;;;;5050529;28;20098;-72
2022/01/30 13:06:52;;;;;;;34.85;5.38;;;8.40;90.50;;;;;;5050096;28;20483;-73
2022/01/30 13:09:25;;;;;;;30.35;5.32;;;8.50;94.00;;;;;;5050158;28;20080;-72
2022/01/30 13:11:52;;;;;;;41.35;6.70;;;8.50;90.80;;;;;;5049850;28;20107;-72
2022/01/30 13:14:17;;;;;;;32.78;5.00;;;8.50;92.20;;;;;;5033059;28;20088;-74
2022/01/30 13:16:49;;;;;;;28.95;5.78;;;8.50;93.90;;;;;;5033865;28;20087;-75
2022/01/30 13:19:27;;;;;;;37.17;5.90;;;8.50;94.50;;;;;;5050637;28;20080;-73
2022/01/30 13:21:53;;;;;;;33.08;5.35;;;8.50;93.00;;;;;;5050487;28;20551;-73
2022/01/30 13:24:20;;;;;;;34.17;5.70;;;8.50;95.50;;;;;;5056332;28;20124;-72
2022/01/30 13:26:47;;;;;;;31.63;5.47;;;8.50;94.40;;;;;;5053720;28;20040;-73
2022/01/30 13:29:21;;;;;;;28.90;4.72;;;8.50;94.10;;;;;;5071072;28;20083;-73
2022/01/30 13:31:49;;;;;;;28.17;5.20;;;8.70;90.10;;;;;;5072653;28;20478;-72
2022/01/30 13:34:21;;;;;;;41.17;5.93;;;8.70;91.90;;;;;;5054067;28;20043;-73
2022/01/30 13:36:54;;;;;;;31.45;5.18;;;8.70;91.50;;;;;;5069344;28;20588;-72
2022/01/30 13:39:27;;;;;;;37.15;5.85;;;8.80;92.90;;;;;;5073793;28;20048;-73
2022/01/30 13:42:14;;;;;;;30.27;4.90;;;8.90;92.60;;;;;;5056312;28;20087;-74
2022/01/30 13:45:05;;;;;;;38.58;6.53;;;8.90;92.40;;;;;;5074088;28;20567;-73
2022/01/30 13:47:31;;;;;;;35.97;5.38;;;8.80;91.20;;;;;;5056981;28;20044;-72